Time;durP1;ratioP1;P1;durP2;ratioP2;P2;SDS_P1;SDS_P2;PMS_P1;PMS_P2;Temp;Humidity;BMP_temperature;BMP_pressure;BME280_temperature;BME280_humidity;BME280_pressure;Samples;Min_cycle;Max_cycle;Signal;HPM_P1;HPM_P2
2024/01/22 00:00:37;;;;;;;8.38;5.38;;;6.80;99.90;;;;;;5009033;28;20137;-66
2024/01/22 00:03:03;;;;;;;11.82;4.43;;;6.80;99.90;;;;;;5009398;28;20050;-66
2024/01/22 00:05:29;;;;;;;8.48;4.55;;;6.90;99.90;;;;;;5009050;28;20056;-66
2024/01/22 00:07:54;;;;;;;8.27;4.75;;;7.00;99.90;;;;;;5024330;28;20042;-66
2024/01/22 00:10:20;;;;;;;10.05;4.28;;;7.00;99.90;;;;;;5007654;28;20057;-66
2024/01/22 00:12:46;;;;;;;8.10;5.13;;;7.00;99.90;;;;;;5009324;28;20052;-66
2024/01/22 00:15:12;;;;;;;7.78;4.05;;;7.00;99.90;;;;;;5024292;28;20449;-66
2024/01/22 00:17:37;;;;;;;6.43;4.65;;;7.00;99.90;;;;;;5008975;28;20084;-66
2024/01/22 00:20:03;;;;;;;11.25;4.43;;;7.10;99.90;;;;;;5008921;28;20084;-66
2024/01/22 00:22:29;;;;;;;8.18;4.13;;;7.10;99.90;;;;;;5024278;28;20077;-67
2024/01/22 00:24:55;;;;;;;10.90;4.68;;;7.20;99.90;;;;;;5023992;28;20084;-66
2024/01/22 00:27:20;;;;;;;6.70;4.22;;;7.10;99.90;;;;;;5023865;28;20061;-66
2024/01/22 00:29:46;;;;;;;10.95;4.38;;;7.20;99.90;;;;;;5009329;28;20241;-66
2024/01/22 00:32:12;;;;;;;7.40;4.03;;;7.20;99.90;;;;;;5007880;28;20045;-66
2024/01/22 00:34:38;;;;;;;8.35;3.97;;;7.20;99.90;;;;;;5008967;28;20053;-66
2024/01/22 00:37:03;;;;;;;5.47;3.97;;;7.30;99.90;;;;;;5009379;28;20140;-65
2024/01/22 00:39:29;;;;;;;6.95;4.38;;;7.20;99.90;;;;;;5009098;28;20033;-65
2024/01/22 00:41:56;;;;;;;7.68;4.47;;;7.20;99.90;;;;;;5009122;28;20046;-65
2024/01/22 00:44:22;;;;;;;7.28;4.35;;;7.20;99.90;;;;;;5009077;28;20121;-65
2024/01/22 00:46:48;;;;;;;10.75;4.47;;;7.20;99.90;;;;;;5008729;28;20092;-65
2024/01/22 00:49:14;;;;;;;6.53;4.00;;;7.30;99.90;;;;;;5008745;28;20485;-65
2024/01/22 00:51:40;;;;;;;8.10;4.15;;;7.30;99.90;;;;;;5008724;28;20410;-65
2024/01/22 00:54:05;;;;;;;7.55;4.00;;;7.30;99.90;;;;;;5023876;28;20073;-65
2024/01/22 00:56:33;;;;;;;5.72;3.58;;;7.40;99.90;;;;;;5023680;28;20501;-65
2024/01/22 00:58:59;;;;;;;8.25;4.35;;;7.40;99.90;;;;;;5008260;28;20053;-65
2024/01/22 01:01:24;;;;;;;10.07;5.30;;;7.40;99.90;;;;;;5008463;28;20125;-65
2024/01/22 01:03:50;;;;;;;7.88;4.72;;;7.40;99.90;;;;;;5008451;28;20482;-66
2024/01/22 01:06:16;;;;;;;5.45;3.83;;;7.50;99.90;;;;;;5008694;28;20096;-65
2024/01/22 01:08:42;;;;;;;6.55;3.90;;;7.50;99.90;;;;;;5008552;28;20041;-66
2024/01/22 01:11:07;;;;;;;7.55;4.20;;;7.60;99.90;;;;;;5007522;28;20046;-65
2024/01/22 01:13:33;;;;;;;7.88;4.40;;;7.60;99.90;;;;;;5008384;28;20050;-66
2024/01/22 01:15:59;;;;;;;6.90;3.65;;;7.70;99.90;;;;;;5008614;28;20046;-65
2024/01/22 01:18:24;;;;;;;9.23;3.97;;;7.70;99.90;;;;;;5008059;28;20041;-66
2024/01/22 01:20:50;;;;;;;7.78;4.07;;;7.70;99.90;;;;;;5008243;28;20047;-65
2024/01/22 01:23:16;;;;;;;5.85;3.85;;;7.70;99.90;;;;;;5022755;28;20042;-66
2024/01/22 01:25:41;;;;;;;5.68;4.18;;;7.70;99.90;;;;;;5008073;28;20085;-66
2024/01/22 01:28:07;;;;;;;10.57;4.35;;;7.70;99.90;;;;;;5022848;28;20045;-66
2024/01/22 01:30:33;;;;;;;5.82;3.33;;;7.80;99.90;;;;;;5008125;28;20074;-66
2024/01/22 01:32:58;;;;;;;6.68;3.63;;;7.90;99.90;;;;;;5007777;28;20068;-66
2024/01/22 01:35:24;;;;;;;6.15;3.35;;;7.90;99.90;;;;;;5008004;28;20054;-67
2024/01/22 01:37:49;;;;;;;8.20;3.78;;;8.00;99.90;;;;;;5023016;28;20042;-67
2024/01/22 01:40:16;;;;;;;6.65;3.85;;;8.00;99.90;;;;;;5008191;28;20189;-66
2024/01/22 01:42:45;;;;;;;6.32;3.90;;;8.10;99.90;;;;;;5006894;28;20107;-66
2024/01/22 01:45:15;;;;;;;7.70;3.70;;;8.10;99.90;;;;;;5007948;28;20431;-66
2024/01/22 01:47:45;;;;;;;6.20;3.40;;;8.10;99.90;;;;;;5023163;28;20143;-66
2024/01/22 01:50:11;;;;;;;8.55;3.38;;;8.10;99.90;;;;;;5007825;28;20465;-66
2024/01/22 01:52:37;;;;;;;6.15;4.28;;;8.20;99.90;;;;;;5007753;28;20065;-66
2024/01/22 01:55:03;;;;;;;6.60;3.90;;;8.10;99.90;;;;;;5007745;28;20050;-66
2024/01/22 01:57:29;;;;;;;7.82;3.70;;;8.10;99.90;;;;;;5008029;28;20133;-66
2024/01/22 01:59:56;;;;;;;7.13;4.10;;;8.10;99.90;;;;;;5022441;28;20072;-66
2024/01/22 02:02:22;;;;;;;7.35;3.63;;;8.10;99.90;;;;;;5007670;28;20034;-66
2024/01/22 02:04:47;;;;;;;5.50;3.80;;;8.10;99.90;;;;;;5007977;28;20053;-66
2024/01/22 02:07:13;;;;;;;8.13;3.70;;;8.10;99.90;;;;;;5007620;28;20076;-66
2024/01/22 02:09:46;;;;;;;8.55;4.22;;;8.10;99.90;;;;;;5022592;28;20056;-67
2024/01/22 02:12:13;;;;;;;4.85;4.05;;;8.00;99.90;;;;;;5007582;28;20122;-66
2024/01/22 02:14:38;;;;;;;6.63;4.00;;;8.10;99.90;;;;;;5007581;28;20038;-66
2024/01/22 02:17:04;;;;;;;5.43;3.50;;;8.00;99.90;;;;;;5007672;28;20069;-65
2024/01/22 02:19:30;;;;;;;7.82;3.90;;;8.00;99.90;;;;;;5007565;28;20048;-66
2024/01/22 02:21:56;;;;;;;8.75;3.88;;;8.00;99.90;;;;;;5007702;28;20180;-66
2024/01/22 02:24:22;;;;;;;8.15;4.18;;;8.00;99.90;;;;;;5011267;28;20137;-66
2024/01/22 02:26:47;;;;;;;7.13;3.83;;;8.00;99.90;;;;;;5011232;28;20042;-66
2024/01/22 02:29:13;;;;;;;6.35;3.65;;;8.00;99.90;;;;;;5026139;28;20490;-66
2024/01/22 02:31:38;;;;;;;9.73;4.90;;;8.00;99.90;;;;;;5011230;28;20058;-66
2024/01/22 02:34:04;;;;;;;5.63;3.70;;;8.10;99.90;;;;;;5011005;28;20095;-67
2024/01/22 02:36:30;;;;;;;10.75;4.45;;;8.10;99.90;;;;;;5010825;28;20038;-67
2024/01/22 02:38:55;;;;;;;8.00;4.18;;;8.00;99.90;;;;;;5026161;28;20088;-67
2024/01/22 02:41:21;;;;;;;7.10;3.92;;;8.00;99.90;;;;;;5011248;28;20045;-67
2024/01/22 02:43:47;;;;;;;6.97;3.78;;;8.00;99.90;;;;;;5010991;28;20125;-67
2024/01/22 02:46:12;;;;;;;8.60;4.07;;;8.10;99.90;;;;;;5011092;28;20042;-67
2024/01/22 02:48:38;;;;;;;7.00;3.45;;;8.00;99.90;;;;;;5011032;28;20085;-67
2024/01/22 02:51:13;;;;;;;6.38;3.72;;;8.00;99.90;;;;;;5010752;28;20038;-67
2024/01/22 02:53:38;;;;;;;7.63;3.83;;;8.10;99.90;;;;;;5011027;28;20046;-67
2024/01/22 02:56:04;;;;;;;9.73;4.75;;;8.10;99.90;;;;;;5011114;28;20034;-67
2024/01/22 02:58:31;;;;;;;11.52;4.45;;;8.20;99.90;;;;;;5010503;28;20132;-67
2024/01/22 03:00:57;;;;;;;5.65;3.60;;;8.10;99.90;;;;;;5010993;28;20133;-66
2024/01/22 03:03:23;;;;;;;6.80;3.55;;;8.10;99.90;;;;;;5010721;28;20445;-66
2024/01/22 03:05:48;;;;;;;8.50;4.00;;;8.20;99.90;;;;;;5009127;28;20095;-67
2024/01/22 03:08:14;;;;;;;8.55;3.90;;;8.10;99.90;;;;;;5010485;28;20077;-66
2024/01/22 03:10:40;;;;;;;4.85;3.83;;;8.30;99.90;;;;;;5010269;28;20038;-66
2024/01/22 03:13:05;;;;;;;8.93;3.75;;;8.20;99.90;;;;;;5025220;28;20069;-67
2024/01/22 03:15:31;;;;;;;6.85;3.47;;;8.20;99.90;;;;;;5010503;28;20125;-66
2024/01/22 03:17:57;;;;;;;8.73;4.05;;;8.20;99.90;;;;;;5010033;28;20065;-66
2024/01/22 03:20:22;;;;;;;7.88;3.70;;;8.20;99.90;;;;;;5010081;28;20042;-66
2024/01/22 03:22:48;;;;;;;5.28;4.03;;;8.30;99.90;;;;;;5009966;28;20041;-66
2024/01/22 03:25:14;;;;;;;4.32;3.67;;;8.20;99.90;;;;;;5009991;28;20080;-66
2024/01/22 03:27:40;;;;;;;7.35;3.45;;;8.20;99.90;;;;;;5009523;28;20500;-66
2024/01/22 03:30:06;;;;;;;5.00;3.40;;;8.20;99.90;;;;;;5010061;28;20042;-67
2024/01/22 03:32:32;;;;;;;8.43;3.78;;;8.30;99.90;;;;;;5024453;28;20448;-67
2024/01/22 03:34:58;;;;;;;7.35;4.07;;;8.30;99.90;;;;;;5009590;28;20042;-65
2024/01/22 03:37:24;;;;;;;9.63;3.50;;;8.30;99.90;;;;;;5009781;28;20045;-66
2024/01/22 03:39:50;;;;;;;9.48;3.58;;;8.30;99.90;;;;;;5010040;28;20104;-66
2024/01/22 03:42:16;;;;;;;6.18;3.53;;;8.30;99.90;;;;;;5008572;28;20406;-66
2024/01/22 03:44:41;;;;;;;5.53;3.50;;;8.30;99.90;;;;;;5025272;28;20046;-66
2024/01/22 03:47:07;;;;;;;4.45;2.88;;;8.40;99.90;;;;;;5010016;28;20065;-66
2024/01/22 03:49:33;;;;;;;4.28;3.10;;;8.40;99.90;;;;;;5010142;28;20041;-66
2024/01/22 03:51:58;;;;;;;7.30;2.97;;;8.30;99.90;;;;;;5024903;28;20050;-66
2024/01/22 03:54:24;;;;;;;4.50;3.40;;;8.40;99.90;;;;;;5010122;28;20037;-65
2024/01/22 03:56:50;;;;;;;6.00;3.35;;;8.40;99.90;;;;;;5009701;28;20045;-66
2024/01/22 03:59:17;;;;;;;4.05;2.85;;;8.40;99.90;;;;;;5009327;28;20112;-66
2024/01/22 04:01:42;;;;;;;6.18;4.57;;;8.40;99.90;;;;;;5009061;28;20754;-66
2024/01/22 04:04:08;;;;;;;4.65;3.25;;;8.50;99.90;;;;;;5009705;28;20042;-66
2024/01/22 04:06:34;;;;;;;6.22;3.33;;;8.50;99.90;;;;;;5009568;28;20431;-66
2024/01/22 04:09:00;;;;;;;6.43;3.78;;;8.50;99.90;;;;;;5009593;28;20045;-66
2024/01/22 04:11:26;;;;;;;5.57;3.25;;;8.50;99.90;;;;;;5009198;28;20129;-66
2024/01/22 04:13:52;;;;;;;4.18;3.28;;;8.50;99.90;;;;;;5024526;28;20050;-66
2024/01/22 04:16:18;;;;;;;7.40;3.20;;;8.50;99.90;;;;;;5009066;28;20041;-65
2024/01/22 04:18:44;;;;;;;5.72;3.20;;;8.50;99.90;;;;;;5009326;28;20068;-65
2024/01/22 04:21:10;;;;;;;4.43;3.47;;;8.50;99.90;;;;;;5024187;28;20481;-65
2024/01/22 04:23:36;;;;;;;4.22;3.60;;;8.50;99.90;;;;;;5009250;28;20041;-66
2024/01/22 04:26:03;;;;;;;7.18;2.88;;;8.60;99.90;;;;;;5009402;28;20099;-66
2024/01/22 04:28:29;;;;;;;3.33;2.88;;;8.60;99.90;;;;;;5009293;28;20037;-66
2024/01/22 04:30:55;;;;;;;5.68;3.00;;;8.60;99.90;;;;;;5009100;28;20057;-65
2024/01/22 04:33:20;;;;;;;4.07;3.00;;;8.60;99.90;;;;;;5009289;28;20070;-65
2024/01/22 04:35:48;;;;;;;2.80;2.60;;;8.70;99.90;;;;;;5009074;28;20049;-65
2024/01/22 04:38:14;;;;;;;4.53;2.72;;;8.60;99.90;;;;;;5009095;28;20049;-66
2024/01/22 04:40:39;;;;;;;5.45;2.88;;;8.70;99.90;;;;;;5009330;28;20099;-66
2024/01/22 04:43:05;;;;;;;3.88;2.67;;;8.60;99.90;;;;;;5009418;28;20041;-66
2024/01/22 04:45:31;;;;;;;5.93;3.20;;;8.60;99.90;;;;;;5007766;28;20453;-67
2024/01/22 04:47:57;;;;;;;4.65;2.85;;;8.60;99.90;;;;;;5009523;28;20462;-67
2024/01/22 04:50:22;;;;;;;5.63;2.92;;;8.70;99.90;;;;;;5009427;28;20121;-67
2024/01/22 04:52:48;;;;;;;2.92;2.67;;;8.70;99.90;;;;;;5009158;28;20060;-67
2024/01/22 04:55:14;;;;;;;2.88;2.67;;;8.70;99.90;;;;;;5009111;28;20100;-67
2024/01/22 04:57:40;;;;;;;3.97;2.83;;;8.70;99.90;;;;;;5008999;28;20044;-67
2024/01/22 05:00:06;;;;;;;3.33;3.03;;;8.80;99.90;;;;;;5008079;28;20397;-67
2024/01/22 05:02:32;;;;;;;3.03;2.70;;;8.70;99.90;;;;;;5008435;28;20064;-67
2024/01/22 05:05:00;;;;;;;3.42;2.80;;;8.80;99.90;;;;;;5008524;28;20042;-67
2024/01/22 05:07:26;;;;;;;4.78;2.78;;;8.80;99.90;;;;;;5008334;28;20057;-67
2024/01/22 05:10:04;;;;;;;3.65;3.20;;;8.80;99.90;;;;;;5008631;28;20037;-67
2024/01/22 05:12:30;;;;;;;6.25;2.53;;;8.80;99.90;;;;;;5008378;28;20521;-67
2024/01/22 05:14:56;;;;;;;5.38;2.45;;;9.00;99.90;;;;;;5008341;28;20165;-67
2024/01/22 05:17:23;;;;;;;3.05;2.75;;;9.00;99.90;;;;;;5008685;28;20120;-67
2024/01/22 05:19:49;;;;;;;3.25;2.90;;;9.00;99.90;;;;;;5023655;28;20056;-67
2024/01/22 05:22:15;;;;;;;3.60;2.80;;;9.10;99.90;;;;;;5008376;28;20487;-67
2024/01/22 05:24:40;;;;;;;2.92;2.58;;;9.10;99.90;;;;;;5023417;28;20041;-67
2024/01/22 05:27:08;;;;;;;3.20;2.78;;;9.00;99.90;;;;;;5024038;28;20080;-66
2024/01/22 05:29:34;;;;;;;2.42;2.22;;;9.10;99.90;;;;;;5007153;28;20076;-66
2024/01/22 05:32:02;;;;;;;2.80;2.50;;;9.10;99.90;;;;;;5023318;28;20439;-66
2024/01/22 05:34:28;;;;;;;3.15;2.40;;;9.20;99.90;;;;;;5008061;28;20446;-66
2024/01/22 05:36:53;;;;;;;2.92;2.63;;;9.20;99.90;;;;;;5008132;28;20065;-66
2024/01/22 05:39:19;;;;;;;2.92;2.67;;;9.10;99.90;;;;;;5023259;28;20133;-66
2024/01/22 05:41:45;;;;;;;4.50;2.60;;;9.20;99.90;;;;;;5007828;28;20121;-65
2024/01/22 05:44:10;;;;;;;2.70;2.50;;;9.20;99.90;;;;;;5007657;28;20113;-65
2024/01/22 05:46:36;;;;;;;5.70;2.65;;;9.20;99.90;;;;;;5008179;28;20038;-66
2024/01/22 05:49:02;;;;;;;4.38;2.58;;;9.20;99.90;;;;;;5007834;28;20624;-66
2024/01/22 05:51:28;;;;;;;3.30;2.65;;;9.30;99.90;;;;;;5008081;28;20394;-67
2024/01/22 05:53:54;;;;;;;2.58;2.38;;;9.30;99.90;;;;;;5008129;28;20061;-66
2024/01/22 05:56:28;;;;;;;4.88;2.83;;;9.30;99.90;;;;;;5023527;28;20107;-66
2024/01/22 05:58:56;;;;;;;3.40;2.80;;;9.30;99.90;;;;;;5011696;28;20528;-66
2024/01/22 06:01:25;;;;;;;2.75;2.28;;;9.40;99.90;;;;;;5012076;28;20060;-65
2024/01/22 06:03:51;;;;;;;4.07;2.90;;;9.40;99.90;;;;;;5012016;28;20362;-66
2024/01/22 06:06:17;;;;;;;3.83;2.50;;;9.50;99.90;;;;;;5011828;28;20056;-66
2024/01/22 06:08:44;;;;;;;3.25;2.40;;;9.40;99.90;;;;;;5012155;28;20054;-66
2024/01/22 06:11:11;;;;;;;2.45;2.03;;;9.50;99.90;;;;;;5012181;28;20041;-67
2024/01/22 06:13:39;;;;;;;2.92;2.53;;;9.50;99.90;;;;;;5022777;28;20037;-66
2024/01/22 06:16:12;;;;;;;2.60;2.25;;;9.60;99.90;;;;;;5031982;28;20052;-66
2024/01/22 06:18:45;;;;;;;2.63;2.42;;;9.50;99.90;;;;;;5031307;28;20052;-67
2024/01/22 06:21:11;;;;;;;2.75;2.33;;;9.50;99.90;;;;;;5031558;28;20075;-66
2024/01/22 06:23:37;;;;;;;4.85;2.42;;;9.60;99.90;;;;;;5031631;28;20405;-67
2024/01/22 06:26:03;;;;;;;5.10;2.60;;;9.60;99.90;;;;;;5031282;28;20312;-67
2024/01/22 06:28:31;;;;;;;4.50;2.13;;;9.60;99.90;;;;;;5045774;28;20124;-67
2024/01/22 06:30:57;;;;;;;2.80;2.30;;;9.60;99.90;;;;;;5031154;28;20128;-67
2024/01/22 06:33:23;;;;;;;4.18;2.97;;;9.60;99.90;;;;;;5031408;28;20095;-67
2024/01/22 06:35:49;;;;;;;5.15;2.28;;;9.70;99.90;;;;;;5031544;28;20045;-67
2024/01/22 06:38:17;;;;;;;2.67;2.00;;;9.70;99.90;;;;;;5046621;28;20133;-67
2024/01/22 06:40:44;;;;;;;2.30;2.10;;;9.70;99.90;;;;;;5031518;28;20539;-67
2024/01/22 06:43:10;;;;;;;2.05;1.85;;;9.70;99.90;;;;;;5031371;28;20100;-67
2024/01/22 06:45:36;;;;;;;2.33;1.90;;;9.70;99.90;;;;;;5031456;28;20048;-67
2024/01/22 06:48:02;;;;;;;4.45;2.10;;;9.70;99.90;;;;;;5031573;28;20049;-67
2024/01/22 06:50:28;;;;;;;4.72;2.58;;;9.80;99.90;;;;;;5046877;28;20068;-67
2024/01/22 06:52:54;;;;;;;4.90;2.70;;;9.70;99.90;;;;;;5031710;28;20037;-67
2024/01/22 06:55:20;;;;;;;3.58;2.03;;;9.80;99.90;;;;;;5031633;28;20041;-67
2024/01/22 06:57:46;;;;;;;7.88;2.00;;;9.80;99.90;;;;;;5031591;28;20056;-67
2024/01/22 07:00:15;;;;;;;3.95;2.17;;;9.80;99.90;;;;;;5046270;28;20100;-67
2024/01/22 07:02:43;;;;;;;4.07;2.50;;;9.80;99.90;;;;;;5030243;28;20424;-67
2024/01/22 07:05:10;;;;;;;6.88;2.50;;;9.80;99.90;;;;;;5031458;28;20065;-67
2024/01/22 07:07:37;;;;;;;11.45;2.67;;;9.90;99.90;;;;;;5031623;28;20120;-67
2024/01/22 07:10:08;;;;;;;6.28;2.33;;;9.90;99.90;;;;;;5031219;28;20075;-67
2024/01/22 07:12:34;;;;;;;8.38;2.20;;;9.90;99.90;;;;;;5031166;28;20532;-67
2024/01/22 07:15:01;;;;;;;8.43;2.78;;;10.00;99.90;;;;;;5031359;28;20116;-67
2024/01/22 07:17:28;;;;;;;11.98;2.60;;;10.00;99.90;;;;;;5014042;28;20053;-67
2024/01/22 07:19:55;;;;;;;8.93;3.08;;;10.00;99.90;;;;;;5011226;28;20076;-67
2024/01/22 07:22:20;;;;;;;9.95;2.67;;;10.00;99.90;;;;;;5010839;28;20491;-67
2024/01/22 07:24:46;;;;;;;17.33;2.40;;;10.10;99.90;;;;;;5010605;28;20129;-67
2024/01/22 07:27:12;;;;;;;10.30;2.25;;;10.20;99.90;;;;;;5004682;28;20117;-67
2024/01/22 07:29:37;;;;;;;13.63;2.58;;;10.10;99.90;;;;;;4995705;28;20046;-66
2024/01/22 07:32:03;;;;;;;13.07;3.30;;;10.20;99.90;;;;;;5010866;28;20038;-67
2024/01/22 07:34:29;;;;;;;13.93;2.72;;;10.10;99.90;;;;;;5010656;28;20057;-67
2024/01/22 07:36:55;;;;;;;17.05;3.47;;;10.20;99.90;;;;;;5010554;28;20398;-67
2024/01/22 07:39:21;;;;;;;14.05;2.63;;;10.20;99.90;;;;;;5010664;28;20038;-67
2024/01/22 07:41:46;;;;;;;17.42;3.90;;;10.20;99.90;;;;;;5011204;28;20057;-68
2024/01/22 07:44:12;;;;;;;12.50;3.15;;;10.20;99.90;;;;;;5011189;28;20470;-67
2024/01/22 07:46:38;;;;;;;10.30;2.70;;;10.20;99.90;;;;;;5011207;28;20054;-67
2024/01/22 07:49:04;;;;;;;18.17;2.88;;;10.30;99.90;;;;;;5009745;28;20052;-67
2024/01/22 07:51:30;;;;;;;11.70;2.80;;;10.30;99.90;;;;;;5011026;28;20034;-67
2024/01/22 07:53:56;;;;;;;19.48;3.47;;;10.30;99.90;;;;;;5010575;28;20520;-67
2024/01/22 07:56:21;;;;;;;25.85;3.10;;;10.30;99.90;;;;;;5010752;28;20477;-67
2024/01/22 07:58:47;;;;;;;21.52;2.97;;;10.30;99.90;;;;;;5025681;28;20050;-67
2024/01/22 08:01:14;;;;;;;16.00;2.55;;;10.30;99.90;;;;;;5009662;28;20052;-67
2024/01/22 08:03:40;;;;;;;15.55;3.30;;;10.30;99.90;;;;;;5010960;28;20038;-67
2024/01/22 08:06:06;;;;;;;7.75;3.00;;;10.30;99.90;;;;;;5025957;28;20050;-67
2024/01/22 08:08:32;;;;;;;13.45;3.95;;;10.40;99.90;;;;;;5009374;28;20041;-68
2024/01/22 08:10:57;;;;;;;9.50;2.70;;;10.40;99.90;;;;;;5010412;28;20048;-67
2024/01/22 08:13:23;;;;;;;16.40;3.42;;;10.40;99.90;;;;;;5010511;28;20038;-67
2024/01/22 08:15:49;;;;;;;12.52;3.33;;;10.30;99.90;;;;;;5024611;28;20592;-67
2024/01/22 08:18:15;;;;;;;11.52;3.40;;;10.30;99.90;;;;;;5022369;28;20103;-67
2024/01/22 08:20:42;;;;;;;12.23;3.13;;;10.30;99.90;;;;;;5024341;28;20127;-67
2024/01/22 08:23:08;;;;;;;10.25;2.90;;;10.30;99.90;;;;;;5010120;28;20068;-67
2024/01/22 08:25:34;;;;;;;13.02;2.72;;;10.20;99.90;;;;;;5010319;28;20045;-66
2024/01/22 08:28:00;;;;;;;8.48;3.20;;;10.20;99.90;;;;;;5010026;28;20354;-67
2024/01/22 08:30:26;;;;;;;17.52;3.28;;;10.20;99.90;;;;;;5010002;28;20440;-66
2024/01/22 08:32:52;;;;;;;9.55;3.50;;;10.30;99.90;;;;;;5025026;28;20052;-66
2024/01/22 08:35:19;;;;;;;12.65;2.92;;;10.20;99.90;;;;;;5010132;28;20049;-66
2024/01/22 08:37:52;;;;;;;9.00;2.88;;;10.20;99.90;;;;;;5009752;28;20351;-66
2024/01/22 08:40:22;;;;;;;10.32;2.88;;;10.20;99.90;;;;;;5008636;28;20078;-66
2024/01/22 08:42:55;;;;;;;8.13;2.42;;;10.20;99.90;;;;;;5010042;28;20045;-66
2024/01/22 08:45:21;;;;;;;10.20;2.65;;;10.20;99.90;;;;;;5010299;28;20324;-66
2024/01/22 08:47:48;;;;;;;10.60;3.20;;;10.20;99.90;;;;;;5010029;28;20053;-67
2024/01/22 08:50:19;;;;;;;14.60;2.90;;;10.20;99.90;;;;;;5010042;28;20049;-67
2024/01/22 08:52:48;;;;;;;10.60;3.22;;;10.20;99.90;;;;;;5009977;28;20125;-67
2024/01/22 08:55:15;;;;;;;13.25;3.00;;;10.20;99.90;;;;;;5010368;28;20440;-67
2024/01/22 08:57:42;;;;;;;10.20;3.22;;;10.20;99.90;;;;;;5010425;28;20034;-67
2024/01/22 09:00:11;;;;;;;7.63;2.38;;;10.20;99.90;;;;;;5009745;28;20054;-67
2024/01/22 09:02:41;;;;;;;11.27;2.85;;;10.20;99.90;;;;;;5009990;28;20053;-67
2024/01/22 09:05:08;;;;;;;10.93;3.22;;;10.20;99.90;;;;;;5009671;28;20125;-67
2024/01/22 09:07:34;;;;;;;9.98;2.40;;;10.20;99.90;;;;;;5009452;28;20048;-66
2024/01/22 09:10:03;;;;;;;11.30;3.05;;;10.20;99.90;;;;;;5024672;28;20041;-65
2024/01/22 09:12:29;;;;;;;10.85;2.60;;;10.20;99.90;;;;;;5009638;28;20049;-66
2024/01/22 09:14:55;;;;;;;8.27;2.40;;;10.20;99.90;;;;;;5009685;28;20034;-65
2024/01/22 09:17:20;;;;;;;9.82;2.78;;;10.20;99.90;;;;;;5009912;28;20041;-66
2024/01/22 09:19:46;;;;;;;10.70;2.60;;;10.20;99.90;;;;;;5009901;28;20132;-66
2024/01/22 09:22:12;;;;;;;6.10;2.10;;;10.10;99.90;;;;;;5006067;28;20042;-66
2024/01/22 09:24:37;;;;;;;12.35;2.88;;;10.20;99.90;;;;;;5009356;28;20383;-66
2024/01/22 09:27:03;;;;;;;11.45;3.45;;;10.10;99.90;;;;;;5005569;28;20061;-67
2024/01/22 09:29:29;;;;;;;11.68;2.60;;;10.10;99.90;;;;;;5008919;28;20033;-67
2024/01/22 09:31:55;;;;;;;15.43;3.47;;;10.10;99.90;;;;;;5010721;28;20053;-66
2024/01/22 09:34:20;;;;;;;16.85;3.60;;;10.10;99.90;;;;;;5012797;28;20564;-66
2024/01/22 09:36:46;;;;;;;19.95;3.30;;;10.10;99.90;;;;;;5012618;28;20042;-66
2024/01/22 09:39:11;;;;;;;16.92;3.80;;;10.10;99.90;;;;;;5012829;28;20045;-66
2024/01/22 09:41:38;;;;;;;28.70;4.25;;;10.00;99.90;;;;;;5012823;28;20112;-66
2024/01/22 09:44:06;;;;;;;16.52;4.47;;;10.00;99.90;;;;;;5012525;28;20042;-66
2024/01/22 09:46:32;;;;;;;32.08;4.68;;;10.10;99.90;;;;;;5027468;28;20597;-66
2024/01/22 09:48:58;;;;;;;29.65;5.45;;;10.00;99.90;;;;;;5012734;28;20088;-66
2024/01/22 09:51:24;;;;;;;25.92;5.38;;;10.10;99.90;;;;;;5012807;28;20040;-66
2024/01/22 09:53:50;;;;;;;28.45;5.30;;;10.10;99.90;;;;;;5027963;28;20497;-66
2024/01/22 09:56:19;;;;;;;39.55;6.70;;;10.00;99.90;;;;;;5012917;28;20269;-66
2024/01/22 09:58:48;;;;;;;31.35;5.95;;;10.10;99.90;;;;;;5011000;28;20120;-67
2024/01/22 10:01:15;;;;;;;39.97;6.93;;;10.00;99.90;;;;;;5038181;28;20351;-66
2024/01/22 10:03:43;;;;;;;36.38;6.88;;;10.10;99.90;;;;;;5027635;28;20053;-66
2024/01/22 10:06:08;;;;;;;29.67;5.65;;;10.00;99.90;;;;;;5012329;28;20347;-66
2024/01/22 10:08:34;;;;;;;35.00;6.10;;;10.00;99.90;;;;;;5013096;28;20068;-68
2024/01/22 10:11:01;;;;;;;34.38;5.70;;;10.00;99.90;;;;;;5012577;28;20046;-67
2024/01/22 10:13:26;;;;;;;40.10;8.38;;;10.10;99.90;;;;;;5012697;28;20042;-68
2024/01/22 10:15:52;;;;;;;29.10;6.03;;;10.10;99.90;;;;;;5028006;28;20042;-67
2024/01/22 10:18:21;;;;;;;37.08;6.53;;;10.00;99.90;;;;;;5011780;28;20030;-67
2024/01/22 10:20:49;;;;;;;45.33;6.35;;;10.10;99.90;;;;;;5008698;28;20042;-66
2024/01/22 10:23:18;;;;;;;25.60;5.47;;;10.10;99.90;;;;;;5010066;28;20049;-66
2024/01/22 10:25:44;;;;;;;42.75;7.68;;;10.10;99.90;;;;;;5007365;28;20038;-67
2024/01/22 10:28:12;;;;;;;48.45;6.47;;;10.10;99.90;;;;;;5011463;28;20036;-68
2024/01/22 10:30:39;;;;;;;32.58;5.75;;;10.10;99.90;;;;;;5011429;28;20053;-68
2024/01/22 10:33:16;;;;;;;47.13;6.47;;;10.10;99.90;;;;;;5011104;28;20100;-67
2024/01/22 10:35:43;;;;;;;41.22;7.10;;;10.10;99.90;;;;;;5011222;28;20038;-67
2024/01/22 10:38:13;;;;;;;30.15;5.93;;;10.10;99.90;;;;;;5026668;28;20049;-67
2024/01/22 10:40:40;;;;;;;36.35;6.90;;;10.00;99.90;;;;;;5009509;28;20386;-65
2024/01/22 10:43:27;;;;;;;43.28;7.40;;;10.00;99.90;;;;;;5001673;28;20103;-67
2024/01/22 10:45:58;;;;;;;42.30;6.63;;;10.00;99.90;;;;;;5033900;28;20051;-68
2024/01/22 10:48:30;;;;;;;39.95;6.50;;;10.10;99.90;;;;;;5046299;28;20052;-67
2024/01/22 10:50:57;;;;;;;;;;;10.00;99.90;;;;;;5002730;28;20335;-68
2024/01/22 10:53:23;;;;;;;32.33;6.32;;;10.00;99.90;;;;;;5010927;28;19921;-66
2024/01/22 10:56:09;;;;;;;32.97;7.25;;;10.00;99.90;;;;;;5025690;28;20068;-66
2024/01/22 10:58:38;;;;;;;44.20;8.52;;;10.00;99.90;;;;;;5010452;28;20070;-67
2024/01/22 11:01:09;;;;;;;34.40;6.50;;;10.00;99.90;;;;;;5011868;28;20080;-67
2024/01/22 11:03:43;;;;;;;41.60;6.78;;;10.00;99.90;;;;;;5023398;28;20050;-67
2024/01/22 11:06:11;;;;;;;38.72;6.50;;;10.00;99.90;;;;;;5010920;28;20081;-67
2024/01/22 11:08:38;;;;;;;41.20;7.45;;;10.00;99.90;;;;;;5011065;28;20057;-67
2024/01/22 11:11:05;;;;;;;34.58;6.85;;;10.00;99.90;;;;;;5011138;28;20049;-67
2024/01/22 11:13:30;;;;;;;39.65;6.57;;;10.00;99.90;;;;;;5010780;28;20042;-67
2024/01/22 11:15:57;;;;;;;44.35;7.03;;;9.90;99.90;;;;;;5025427;28;20063;-67
2024/01/22 11:18:23;;;;;;;30.50;5.72;;;10.00;99.90;;;;;;5010421;28;20033;-67
2024/01/22 11:21:11;;;;;;;40.80;8.18;;;10.00;99.90;;;;;;5010422;28;20096;-67
2024/01/22 11:23:36;;;;;;;36.55;6.60;;;10.00;99.90;;;;;;5010482;28;20411;-67
2024/01/22 11:26:10;;;;;;;35.65;7.35;;;10.00;99.90;;;;;;5010453;28;20046;-67
2024/01/22 11:28:35;;;;;;;34.90;6.25;;;10.00;99.90;;;;;;5025729;28;20046;-66
2024/01/22 11:31:02;;;;;;;36.80;6.78;;;10.00;99.90;;;;;;5009314;28;20429;-66
2024/01/22 11:33:31;;;;;;;35.40;7.00;;;10.00;99.90;;;;;;5010440;28;20085;-67
2024/01/22 11:35:56;;;;;;;41.20;7.03;;;10.00;99.90;;;;;;5010459;28;20340;-67
2024/01/22 11:38:53;;;;;;;32.95;7.38;;;10.00;99.90;;;;;;5010970;28;20099;-67
2024/01/22 11:41:32;;;;;;;32.38;6.07;;;10.00;99.90;;;;;;5010475;28;20525;-66
2024/01/22 11:43:59;;;;;;;38.72;6.88;;;10.00;99.90;;;;;;5010409;28;20078;-66
2024/01/22 11:46:26;;;;;;;38.08;5.68;;;10.00;99.90;;;;;;5010504;28;20139;-66
2024/01/22 11:48:53;;;;;;;30.50;5.93;;;9.90;99.90;;;;;;5025300;28;20446;-66
2024/01/22 11:51:25;;;;;;;35.97;5.85;;;9.90;99.90;;;;;;5010498;28;20061;-66
2024/01/22 11:53:55;;;;;;;30.63;6.93;;;9.90;99.90;;;;;;5009616;28;20103;-66
2024/01/22 11:56:21;;;;;;;24.05;6.07;;;9.90;99.90;;;;;;5025256;28;20045;-65
2024/01/22 11:58:47;;;;;;;36.38;6.07;;;10.00;99.90;;;;;;5010419;28;20042;-65
2024/01/22 12:01:13;;;;;;;37.42;6.90;;;10.00;99.90;;;;;;5009321;28;20049;-65
2024/01/22 12:03:39;;;;;;;28.55;6.50;;;10.00;99.90;;;;;;5025910;28;20395;-65
2024/01/22 12:06:07;;;;;;;29.42;5.85;;;10.00;99.90;;;;;;5010523;28;20044;-65
2024/01/22 12:08:34;;;;;;;29.77;6.13;;;10.00;99.90;;;;;;5010317;28;20490;-65
2024/01/22 12:11:06;;;;;;;30.58;6.05;;;9.90;99.90;;;;;;5010603;28;20158;-65
2024/01/22 12:13:32;;;;;;;24.88;5.80;;;9.90;99.90;;;;;;5010413;28;20173;-64
2024/01/22 12:15:58;;;;;;;39.00;5.03;;;9.90;99.90;;;;;;5008367;28;20453;-64
2024/01/22 12:18:25;;;;;;;30.70;5.25;;;9.90;99.90;;;;;;5010345;28;20056;-65
2024/01/22 12:20:51;;;;;;;31.48;5.65;;;9.90;99.90;;;;;;5009652;28;20038;-65
2024/01/22 12:23:32;;;;;;;31.92;6.22;;;9.90;99.90;;;;;;5009924;28;20375;-66
2024/01/22 12:25:59;;;;;;;21.38;4.80;;;9.90;99.90;;;;;;5009767;28;20052;-65
2024/01/22 12:28:26;;;;;;;22.35;4.57;;;9.90;99.90;;;;;;5009977;28;20371;-66
2024/01/22 12:31:02;;;;;;;24.30;4.63;;;9.90;99.90;;;;;;5010044;28;20097;-66
2024/01/22 12:33:33;;;;;;;27.55;4.57;;;9.90;99.90;;;;;;5010601;28;20038;-66
2024/01/22 12:36:05;;;;;;;28.05;5.47;;;9.90;99.90;;;;;;5010397;28;20173;-66
2024/01/22 12:38:33;;;;;;;24.25;4.40;;;9.90;99.90;;;;;;5010282;28;20042;-66
2024/01/22 12:41:08;;;;;;;32.50;5.40;;;9.90;99.90;;;;;;5009883;28;20046;-65
2024/01/22 12:43:36;;;;;;;28.67;4.85;;;9.80;99.90;;;;;;5009709;28;20072;-67
2024/01/22 12:46:15;;;;;;;34.38;4.88;;;9.80;99.90;;;;;;5009516;28;20046;-65
2024/01/22 12:48:44;;;;;;;13.93;5.00;;;9.80;99.90;;;;;;5009889;28;20029;-66